createdAt,value
2023-02-11T00:00:55.698Z,2.40
2023-02-11T00:03:22.601Z,2.40
2023-02-11T00:05:59.364Z,2.50
2023-02-11T00:08:26.217Z,2.50
2023-02-11T00:10:54.184Z,2.50
2023-02-11T00:13:21.328Z,2.50
2023-02-11T00:15:48.201Z,2.50
2023-02-11T00:18:15.102Z,2.50
2023-02-11T00:20:42.231Z,2.50
2023-02-11T00:23:08.967Z,2.40
2023-02-11T00:25:40.771Z,2.50
2023-02-11T00:28:07.558Z,2.50
2023-02-11T00:30:34.494Z,2.40
2023-02-11T00:33:01.470Z,2.50
2023-02-11T00:35:28.391Z,2.50
2023-02-11T00:37:55.388Z,2.50
2023-02-11T00:40:22.469Z,2.50
2023-02-11T00:42:49.201Z,2.50
2023-02-11T00:45:16.586Z,2.50
2023-02-11T00:47:43.217Z,2.40
2023-02-11T00:50:09.901Z,2.40
2023-02-11T00:52:36.570Z,2.40
2023-02-11T00:55:03.275Z,2.40
2023-02-11T00:57:29.950Z,2.40
2023-02-11T00:59:56.622Z,2.40
2023-02-11T01:02:23.324Z,2.30
2023-02-11T01:04:50.025Z,2.40
2023-02-11T01:07:16.741Z,2.40
2023-02-11T01:09:43.375Z,2.40
2023-02-11T01:12:10.043Z,2.40
2023-02-11T01:14:36.720Z,2.40
2023-02-11T01:17:05.253Z,2.40
2023-02-11T01:19:31.883Z,2.30
2023-02-11T01:21:58.498Z,2.40
2023-02-11T01:24:25.155Z,2.40
2023-02-11T01:26:51.820Z,2.30
2023-02-11T01:29:18.435Z,2.40
2023-02-11T01:31:45.700Z,2.40
2023-02-11T01:34:12.378Z,2.40
2023-02-11T01:36:39.102Z,2.40
2023-02-11T01:39:05.690Z,2.40
2023-02-11T01:41:32.388Z,2.50
2023-02-11T01:43:59.150Z,2.50
2023-02-11T01:46:33.833Z,2.50
2023-02-11T01:49:03.572Z,2.50
2023-02-11T01:51:33.095Z,2.40
2023-02-11T01:54:32.828Z,2.50
2023-02-11T01:57:19.105Z,2.40
2023-02-11T01:59:45.951Z,2.40
2023-02-11T02:02:21.669Z,2.40
2023-02-11T02:05:11.684Z,2.40
2023-02-11T02:07:56.971Z,2.50
2023-02-11T02:10:25.574Z,2.60
2023-02-11T02:12:52.305Z,2.60
2023-02-11T02:15:23.661Z,2.60
2023-02-11T02:17:59.614Z,2.70
2023-02-11T02:20:41.866Z,2.70
2023-02-11T02:23:27.397Z,2.80
2023-02-11T02:26:08.233Z,2.80
2023-02-11T02:28:58.099Z,2.80
2023-02-11T02:31:30.451Z,2.80
2023-02-11T02:34:06.823Z,2.90
2023-02-11T02:36:36.294Z,2.90
2023-02-11T02:39:12.405Z,2.90
2023-02-11T02:41:39.825Z,2.90
2023-02-11T02:44:07.389Z,3.00
2023-02-11T02:46:35.263Z,3.00
2023-02-11T02:49:02.024Z,3.00
2023-02-11T02:51:40.682Z,3.00
2023-02-11T02:54:26.131Z,3.10
2023-02-11T02:57:01.911Z,3.10
2023-02-11T02:59:47.388Z,3.10
2023-02-11T03:02:26.788Z,3.10
2023-02-11T03:04:57.895Z,3.10
2023-02-11T03:07:35.109Z,3.10
2023-02-11T03:10:01.768Z,3.10
2023-02-11T03:12:30.837Z,3.10
2023-02-11T03:14:59.200Z,3.10
2023-02-11T03:17:26.371Z,3.10
2023-02-11T03:19:53.661Z,3.10
2023-02-11T03:22:23.620Z,3.10
2023-02-11T03:24:50.416Z,3.20
2023-02-11T03:27:23.005Z,3.20
2023-02-11T03:29:51.995Z,3.20
2023-02-11T03:32:26.795Z,3.30
2023-02-11T03:35:01.267Z,3.30
2023-02-11T03:37:37.194Z,3.30
2023-02-11T03:40:06.540Z,3.30
2023-02-11T03:42:35.651Z,3.30
2023-02-11T03:45:10.149Z,3.30
2023-02-11T03:47:38.276Z,3.30
2023-02-11T03:50:06.272Z,3.30
2023-02-11T03:52:33.981Z,3.30
2023-02-11T03:55:01.781Z,3.30
2023-02-11T03:57:28.565Z,3.20
2023-02-11T03:59:56.390Z,3.30
2023-02-11T04:02:25.199Z,3.20
2023-02-11T04:04:51.845Z,3.30
2023-02-11T04:07:18.494Z,3.20
2023-02-11T04:09:45.226Z,3.30
2023-02-11T04:12:11.823Z,3.30
2023-02-11T04:14:38.644Z,3.20
2023-02-11T04:17:05.283Z,3.20
2023-02-11T04:19:31.941Z,3.20
2023-02-11T04:21:58.597Z,3.20
2023-02-11T04:24:25.244Z,3.20
2023-02-11T04:26:52.619Z,3.20
2023-02-11T04:29:19.590Z,3.20
2023-02-11T04:31:46.506Z,3.20
2023-02-11T04:34:13.227Z,3.20
2023-02-11T04:36:39.895Z,3.10
2023-02-11T04:39:06.506Z,3.10
2023-02-11T04:41:33.314Z,3.10
2023-02-11T04:43:59.964Z,3.10
2023-02-11T04:46:26.718Z,3.10
2023-02-11T04:48:53.364Z,3.10
2023-02-11T04:51:20.019Z,3.10
2023-02-11T04:53:46.659Z,3.10
2023-02-11T04:56:13.295Z,3.10
2023-02-11T04:58:40.001Z,3.10
2023-02-11T05:01:07.786Z,3.10
2023-02-11T05:03:34.501Z,3.10
2023-02-11T05:06:01.113Z,3.00
2023-02-11T05:08:27.891Z,3.00
2023-02-11T05:10:54.601Z,3.00
2023-02-11T05:13:21.266Z,3.00
2023-02-11T05:15:48.223Z,3.00
2023-02-11T05:18:15.080Z,3.00
2023-02-11T05:20:42.187Z,3.00
2023-02-11T05:23:08.835Z,3.00
2023-02-11T05:25:35.570Z,3.00
2023-02-11T05:28:02.619Z,3.00
2023-02-11T05:30:29.528Z,3.00
2023-02-11T05:32:56.390Z,3.00
2023-02-11T05:35:23.190Z,3.00
2023-02-11T05:37:49.867Z,3.00
2023-02-11T05:40:16.566Z,3.10
2023-02-11T05:42:43.188Z,3.10
2023-02-11T05:45:09.896Z,3.00
2023-02-11T05:47:36.481Z,3.10
2023-02-11T05:50:03.307Z,3.10
2023-02-11T05:52:30.051Z,3.10
2023-02-11T05:54:56.707Z,3.10
2023-02-11T05:57:23.356Z,3.10
2023-02-11T05:59:49.958Z,3.10
2023-02-11T06:02:16.710Z,3.10
2023-02-11T06:04:44.285Z,3.10
2023-02-11T06:07:10.944Z,3.10
2023-02-11T06:09:37.831Z,3.10
2023-02-11T06:12:04.639Z,3.10
2023-02-11T06:14:33.197Z,3.10
2023-02-11T06:17:00.199Z,3.10
2023-02-11T06:19:27.056Z,3.10
2023-02-11T06:21:53.712Z,3.10
2023-02-11T06:24:38.499Z,3.10
2023-02-11T06:27:06.978Z,3.10
2023-02-11T06:29:33.655Z,3.10
2023-02-11T06:32:00.348Z,3.10
2023-02-11T06:34:27.045Z,3.10
2023-02-11T06:36:53.643Z,3.10
2023-02-11T06:39:20.283Z,3.10
2023-02-11T06:41:46.898Z,3.10
2023-02-11T06:44:13.515Z,3.20
2023-02-11T06:46:40.151Z,3.20
2023-02-11T06:49:06.763Z,3.20
2023-02-11T06:51:33.359Z,3.20
2023-02-11T06:53:59.966Z,3.20
2023-02-11T06:56:27.520Z,3.30
2023-02-11T06:58:55.497Z,3.30
2023-02-11T07:01:22.852Z,3.30
2023-02-11T07:03:49.635Z,3.30
2023-02-11T07:06:20.185Z,3.30
2023-02-11T07:08:48.186Z,3.40
2023-02-11T07:11:19.593Z,3.40
2023-02-11T07:13:46.691Z,3.40
2023-02-11T07:16:15.302Z,3.40
2023-02-11T07:18:42.404Z,3.40
2023-02-11T07:21:10.584Z,3.40
2023-02-11T07:23:37.500Z,3.50
2023-02-11T07:26:05.232Z,3.50
2023-02-11T07:28:32.071Z,3.50
2023-02-11T07:30:58.750Z,3.50
2023-02-11T07:33:25.432Z,3.50
2023-02-11T07:35:52.280Z,3.50
2023-02-11T07:38:19.089Z,3.50
2023-02-11T07:40:45.749Z,3.60
2023-02-11T07:43:12.365Z,3.60
2023-02-11T07:45:39.385Z,3.70
2023-02-11T07:48:06.131Z,3.70
2023-02-11T07:50:33.046Z,3.70
2023-02-11T07:52:59.693Z,3.70
2023-02-11T07:55:26.334Z,3.80
2023-02-11T07:57:52.963Z,3.80
2023-02-11T08:00:21.219Z,3.80
2023-02-11T08:02:47.971Z,3.80
2023-02-11T08:05:14.627Z,3.90
2023-02-11T08:07:41.251Z,4.00
2023-02-11T08:10:07.981Z,4.00
2023-02-11T08:12:34.675Z,4.10
2023-02-11T08:15:01.255Z,4.10
2023-02-11T08:17:27.880Z,4.10
2023-02-11T08:19:54.639Z,4.10
2023-02-11T08:22:21.376Z,4.10
2023-02-11T08:24:49.613Z,4.10
2023-02-11T08:27:17.997Z,4.10
2023-02-11T08:29:44.604Z,4.00
2023-02-11T08:32:11.294Z,4.00
2023-02-11T08:34:38.006Z,4.00
2023-02-11T08:37:04.648Z,4.00
2023-02-11T08:39:31.279Z,4.00
2023-02-11T08:41:57.864Z,4.00
2023-02-11T08:44:24.604Z,4.10
2023-02-11T08:46:51.353Z,4.10
2023-02-11T08:49:18.147Z,4.10
2023-02-11T08:51:45.180Z,4.20
2023-02-11T08:54:12.261Z,4.20
2023-02-11T08:56:39.021Z,4.20
2023-02-11T08:59:06.334Z,4.30
2023-02-11T09:01:33.404Z,4.20
2023-02-11T09:04:01.108Z,4.20
2023-02-11T09:06:27.960Z,4.20
2023-02-11T09:08:56.510Z,4.20
2023-02-11T09:11:26.260Z,4.20
2023-02-11T09:13:54.503Z,4.20
2023-02-11T09:16:25.285Z,4.20
2023-02-11T09:18:52.538Z,4.30
2023-02-11T09:21:19.725Z,4.50
2023-02-11T09:23:47.811Z,4.50
2023-02-11T09:26:21.646Z,4.60
2023-02-11T09:28:48.853Z,4.70
2023-02-11T09:31:16.868Z,4.80
2023-02-11T09:33:47.838Z,4.90
2023-02-11T09:36:22.073Z,5.00
2023-02-11T09:38:49.051Z,5.10
2023-02-11T09:41:27.135Z,5.20
2023-02-11T09:43:55.556Z,5.20
2023-02-11T09:46:23.190Z,5.20
2023-02-11T09:48:51.844Z,5.20
2023-02-11T09:51:33.052Z,5.30
2023-02-11T09:54:04.455Z,5.40
2023-02-11T09:56:32.124Z,5.50
2023-02-11T09:58:58.748Z,5.70
2023-02-11T10:01:30.620Z,5.70
2023-02-11T10:04:16.102Z,5.80
2023-02-11T10:06:51.720Z,5.90
2023-02-11T10:09:37.017Z,6.00
2023-02-11T10:12:09.784Z,6.00
2023-02-11T10:14:36.413Z,5.90
2023-02-11T10:17:23.277Z,5.80
2023-02-11T10:19:58.968Z,5.70
2023-02-11T10:22:28.381Z,5.60
2023-02-11T10:24:58.473Z,5.60
2023-02-11T10:27:29.061Z,5.60
2023-02-11T10:30:02.617Z,5.60
2023-02-11T10:32:33.415Z,5.60
2023-02-11T10:35:02.170Z,5.60
2023-02-11T10:37:29.506Z,5.60
2023-02-11T10:39:56.246Z,5.60
2023-02-11T10:42:22.867Z,5.60
2023-02-11T10:44:56.439Z,5.50
2023-02-11T10:47:25.124Z,5.60
2023-02-11T10:49:51.788Z,5.60
2023-02-11T10:52:23.994Z,5.60
2023-02-11T10:54:58.201Z,5.70
2023-02-11T10:57:27.661Z,5.70
2023-02-11T10:59:58.502Z,5.90
2023-02-11T11:02:32.035Z,6.00
2023-02-11T11:04:59.516Z,6.10
2023-02-11T11:07:28.038Z,6.20
2023-02-11T11:09:56.667Z,6.20
2023-02-11T11:12:30.606Z,6.20
2023-02-11T11:15:16.304Z,6.20
2023-02-11T11:17:42.957Z,6.20
2023-02-11T11:20:27.422Z,6.20
2023-02-11T11:23:08.937Z,6.20
2023-02-11T11:25:37.726Z,6.00
2023-02-11T11:28:04.512Z,5.90
2023-02-11T11:30:39.101Z,5.90
2023-02-11T11:33:14.799Z,6.00
2023-02-11T11:35:41.462Z,6.00
2023-02-11T11:38:13.323Z,6.10
2023-02-11T11:40:39.998Z,6.10
2023-02-11T11:43:15.488Z,6.20
2023-02-11T11:45:55.761Z,6.20
2023-02-11T11:48:25.059Z,6.30
2023-02-11T11:50:59.634Z,6.40
2023-02-11T11:53:35.982Z,6.40
2023-02-11T11:56:04.529Z,6.50
2023-02-11T11:58:32.044Z,6.60
2023-02-11T12:01:04.716Z,6.70
2023-02-11T12:03:31.459Z,6.90
2023-02-11T12:06:04.001Z,7.20
2023-02-11T12:08:42.680Z,7.60
2023-02-11T12:11:17.944Z,8.00
2023-02-11T12:14:03.566Z,8.30
2023-02-11T12:16:33.287Z,8.50
2023-02-11T12:19:02.982Z,8.60
2023-02-11T12:21:29.664Z,8.60
2023-02-11T12:24:17.248Z,8.70
2023-02-11T12:26:49.884Z,8.60
2023-02-11T12:29:19.563Z,8.50
2023-02-11T12:32:05.401Z,8.40
2023-02-11T12:34:37.800Z,8.40
2023-02-11T12:37:06.807Z,8.30
2023-02-11T12:39:42.677Z,8.30
2023-02-11T12:42:51.645Z,8.30
2023-02-11T12:45:24.626Z,8.20
2023-02-11T12:47:51.338Z,8.00
2023-02-11T12:50:36.236Z,7.80
2023-02-11T12:53:02.899Z,7.70
2023-02-11T12:55:31.117Z,7.50
2023-02-11T12:57:59.440Z,7.30
2023-02-11T13:00:31.277Z,7.20
2023-02-11T13:03:12.489Z,7.10
2023-02-11T13:05:49.633Z,7.00
2023-02-11T13:08:19.117Z,7.00
2023-02-11T13:10:53.071Z,7.00
2023-02-11T13:13:42.780Z,7.00
2023-02-11T13:16:18.581Z,7.00
2023-02-11T13:18:49.636Z,7.00
2023-02-11T13:21:16.564Z,7.10
2023-02-11T13:24:05.427Z,7.20
2023-02-11T13:26:32.345Z,7.20
2023-02-11T13:29:08.159Z,7.20
2023-02-11T13:31:34.928Z,7.20
2023-02-11T13:34:01.726Z,7.20
2023-02-11T13:36:30.148Z,7.20
2023-02-11T13:38:58.382Z,7.30
2023-02-11T13:41:36.715Z,7.30
2023-02-11T13:44:05.566Z,7.30
2023-02-11T13:46:53.066Z,7.40
2023-02-11T13:49:21.300Z,7.50
2023-02-11T13:51:48.371Z,7.60
2023-02-11T13:54:23.514Z,7.70
2023-02-11T13:57:10.398Z,7.80
2023-02-11T13:59:37.014Z,7.80
2023-02-11T14:02:24.995Z,7.90
2023-02-11T14:05:22.741Z,7.90
2023-02-11T14:08:26.411Z,7.90
2023-02-11T14:10:54.958Z,7.90
2023-02-11T14:13:21.711Z,7.80
2023-02-11T14:15:48.546Z,7.80
2023-02-11T14:18:33.935Z,7.70
2023-02-11T14:21:14.018Z,7.60
2023-02-11T14:23:41.100Z,7.50
2023-02-11T14:26:20.131Z,7.40
2023-02-11T14:28:49.260Z,7.40
2023-02-11T14:31:21.785Z,7.30
2023-02-11T14:34:07.104Z,7.30
2023-02-11T14:36:52.686Z,7.20
2023-02-11T14:39:25.772Z,7.20
2023-02-11T14:41:52.669Z,7.10
2023-02-11T14:44:19.307Z,7.00
2023-02-11T14:46:50.263Z,7.00
2023-02-11T14:49:35.370Z,7.00
2023-02-11T14:52:07.435Z,6.90
2023-02-11T14:54:35.016Z,6.90
2023-02-11T14:57:07.861Z,6.90
2023-02-11T14:59:34.838Z,6.90
2023-02-11T15:02:01.724Z,6.90
2023-02-11T15:04:29.869Z,7.00
2023-02-11T15:06:59.324Z,6.90
2023-02-11T15:09:34.100Z,6.90
2023-02-11T15:12:01.056Z,6.90
2023-02-11T15:14:29.473Z,6.90
2023-02-11T15:16:58.016Z,6.90
2023-02-11T15:19:27.667Z,6.90
2023-02-11T15:21:54.729Z,6.90
2023-02-11T15:24:24.229Z,6.80
2023-02-11T15:26:58.311Z,6.80
2023-02-11T15:29:28.903Z,6.80
2023-02-11T15:32:06.059Z,6.80
2023-02-11T15:34:33.226Z,6.70
2023-02-11T15:36:59.968Z,6.70
2023-02-11T15:39:35.149Z,6.70
2023-02-11T15:42:17.197Z,6.70
2023-02-11T15:44:43.894Z,6.60
2023-02-11T15:47:17.416Z,6.60
2023-02-11T15:49:44.960Z,6.60
2023-02-11T15:52:12.954Z,6.50
2023-02-11T15:54:39.956Z,6.50
2023-02-11T15:57:08.116Z,6.50
2023-02-11T15:59:38.136Z,6.50
2023-02-11T16:02:17.008Z,6.50
2023-02-11T16:04:54.296Z,6.40
2023-02-11T16:07:40.465Z,6.40
2023-02-11T16:10:17.520Z,6.40
2023-02-11T16:12:54.738Z,6.30
2023-02-11T16:15:33.838Z,6.30
2023-02-11T16:18:19.218Z,6.30
2023-02-11T16:20:49.514Z,6.20
2023-02-11T16:23:42.628Z,6.20
2023-02-11T16:26:09.383Z,6.20
2023-02-11T16:28:37.215Z,6.20
2023-02-11T16:31:04.455Z,6.10
2023-02-11T16:33:31.546Z,6.20
2023-02-11T16:36:02.013Z,6.10
2023-02-11T16:38:29.084Z,6.20
2023-02-11T16:40:55.680Z,6.20
2023-02-11T16:43:22.329Z,6.20
2023-02-11T16:45:49.241Z,6.20
2023-02-11T16:48:18.119Z,6.20
2023-02-11T16:50:46.550Z,6.20
2023-02-11T16:53:15.756Z,6.20
2023-02-11T16:55:42.370Z,6.20
2023-02-11T16:58:09.211Z,6.20
2023-02-11T17:00:36.292Z,6.20
2023-02-11T17:03:05.633Z,6.20
2023-02-11T17:05:42.772Z,6.20
2023-02-11T17:08:16.214Z,6.20
2023-02-11T17:10:43.118Z,6.20
2023-02-11T17:13:09.837Z,6.30
2023-02-11T17:15:36.524Z,6.20
2023-02-11T17:18:03.320Z,6.20
2023-02-11T17:20:30.013Z,6.20
2023-02-11T17:22:56.642Z,6.10
2023-02-11T17:25:24.494Z,6.10
2023-02-11T17:27:52.830Z,6.10
2023-02-11T17:30:19.753Z,6.10
2023-02-11T17:32:47.246Z,6.00
2023-02-11T17:35:13.990Z,6.00
2023-02-11T17:37:40.782Z,6.00
2023-02-11T17:40:07.681Z,6.00
2023-02-11T17:42:34.323Z,5.90
2023-02-11T17:45:00.954Z,5.90
2023-02-11T17:47:27.590Z,5.90
2023-02-11T17:49:54.229Z,5.90
2023-02-11T17:52:21.513Z,5.80
2023-02-11T17:54:48.151Z,5.80
2023-02-11T17:57:14.840Z,5.80
2023-02-11T17:59:41.550Z,5.80
2023-02-11T18:02:10.437Z,5.70
2023-02-11T18:04:37.091Z,5.70
2023-02-11T18:07:03.748Z,5.70
2023-02-11T18:09:30.356Z,5.70
2023-02-11T18:11:58.375Z,5.70
2023-02-11T18:14:25.105Z,5.60
2023-02-11T18:16:52.026Z,5.60
2023-02-11T18:19:18.829Z,5.60
2023-02-11T18:21:45.546Z,5.60
2023-02-11T18:24:12.202Z,5.60
2023-02-11T18:26:38.995Z,5.60
2023-02-11T18:29:06.920Z,5.60
2023-02-11T18:31:35.329Z,5.60
2023-02-11T18:34:03.687Z,5.70
2023-02-11T18:36:30.362Z,5.60
2023-02-11T18:38:58.092Z,5.60
2023-02-11T18:41:24.711Z,5.60
2023-02-11T18:43:51.410Z,5.60
2023-02-11T18:46:18.259Z,5.60
2023-02-11T18:48:45.075Z,5.60
2023-02-11T18:51:13.513Z,5.60
2023-02-11T18:53:40.218Z,5.60
2023-02-11T18:56:14.640Z,5.60
2023-02-11T18:58:41.266Z,5.60
2023-02-11T19:01:18.050Z,5.60
2023-02-11T19:03:44.996Z,5.60
2023-02-11T19:06:15.824Z,5.60
2023-02-11T19:08:42.652Z,5.60
2023-02-11T19:11:09.371Z,5.60
2023-02-11T19:13:35.992Z,5.60
2023-02-11T19:16:05.018Z,5.60
2023-02-11T19:18:31.652Z,5.60
2023-02-11T19:20:58.330Z,5.60
2023-02-11T19:23:24.955Z,5.70
2023-02-11T19:25:51.900Z,5.70
2023-02-11T19:28:18.733Z,5.70
2023-02-11T19:30:45.495Z,5.70
2023-02-11T19:33:12.183Z,5.70
2023-02-11T19:35:38.854Z,5.70
2023-02-11T19:38:05.758Z,5.80
2023-02-11T19:40:32.754Z,5.80
2023-02-11T19:42:59.567Z,5.80
2023-02-11T19:45:26.957Z,5.80
2023-02-11T19:47:56.914Z,5.80
2023-02-11T19:50:24.032Z,5.80
2023-02-11T19:52:50.725Z,5.80
2023-02-11T19:55:17.501Z,5.80
2023-02-11T19:57:44.287Z,5.80
2023-02-11T20:00:11.334Z,5.80
2023-02-11T20:02:41.018Z,5.80
2023-02-11T20:05:07.942Z,5.90
2023-02-11T20:07:34.925Z,5.90
2023-02-11T20:10:01.625Z,5.90
2023-02-11T20:12:28.326Z,5.90
2023-02-11T20:14:54.928Z,5.90
2023-02-11T20:17:21.546Z,6.00
2023-02-11T20:19:48.184Z,6.00
2023-02-11T20:22:14.902Z,6.00
2023-02-11T20:24:41.557Z,6.00
2023-02-11T20:27:10.457Z,6.00
2023-02-11T20:29:37.644Z,6.00
2023-02-11T20:32:04.996Z,6.00
2023-02-11T20:34:31.883Z,6.00
2023-02-11T20:36:59.457Z,6.10
2023-02-11T20:39:26.733Z,6.10
2023-02-11T20:41:53.893Z,6.10
2023-02-11T20:44:23.786Z,6.10
2023-02-11T20:46:50.939Z,6.10
2023-02-11T20:49:19.378Z,6.10
2023-02-11T20:51:46.159Z,6.10
2023-02-11T20:54:17.682Z,6.10
2023-02-11T20:56:47.688Z,6.10
2023-02-11T20:59:15.111Z,6.10
2023-02-11T21:01:42.958Z,6.10
2023-02-11T21:04:13.784Z,6.20
2023-02-11T21:06:41.860Z,6.10
2023-02-11T21:09:10.659Z,6.10
2023-02-11T21:11:37.592Z,6.10
2023-02-11T21:14:04.211Z,6.10
2023-02-11T21:16:31.279Z,6.10
2023-02-11T21:18:58.236Z,6.10
2023-02-11T21:21:25.025Z,6.10
2023-02-11T21:23:51.937Z,6.10
2023-02-11T21:26:18.546Z,6.20
2023-02-11T21:28:45.241Z,6.20
2023-02-11T21:31:18.036Z,6.20
2023-02-11T21:33:44.743Z,6.10
2023-02-11T21:36:11.390Z,6.20
2023-02-11T21:38:38.104Z,6.10
2023-02-11T21:41:05.308Z,6.10
2023-02-11T21:43:32.348Z,6.10
2023-02-11T21:45:59.147Z,6.10
2023-02-11T21:48:26.660Z,6.10
2023-02-11T21:50:53.530Z,6.10
2023-02-11T21:53:20.247Z,6.00
2023-02-11T21:55:46.910Z,6.00
2023-02-11T21:58:13.758Z,6.10
2023-02-11T22:00:40.540Z,6.00
2023-02-11T22:03:07.255Z,6.00
2023-02-11T22:05:33.937Z,6.00
2023-02-11T22:08:00.601Z,5.90
2023-02-11T22:10:27.222Z,5.90
2023-02-11T22:12:53.893Z,5.90
2023-02-11T22:15:20.565Z,5.90
2023-02-11T22:17:47.197Z,5.90
2023-02-11T22:20:13.855Z,5.90
2023-02-11T22:22:40.478Z,5.90
2023-02-11T22:25:07.317Z,5.90
2023-02-11T22:27:34.005Z,5.90
2023-02-11T22:30:00.652Z,5.90
2023-02-11T22:32:27.299Z,5.90
2023-02-11T22:34:53.970Z,5.90
2023-02-11T22:37:20.816Z,5.90
2023-02-11T22:39:47.754Z,5.80
2023-02-11T22:42:14.443Z,5.80
2023-02-11T22:44:41.159Z,5.80
2023-02-11T22:47:07.801Z,5.80
2023-02-11T22:49:34.468Z,5.80
2023-02-11T22:52:01.394Z,5.80
2023-02-11T22:54:28.114Z,5.80
2023-02-11T22:56:54.729Z,5.90
2023-02-11T22:59:21.416Z,5.90
2023-02-11T23:01:48.436Z,5.90
2023-02-11T23:04:16.071Z,5.90
2023-02-11T23:06:43.189Z,5.90
2023-02-11T23:09:10.374Z,5.90
2023-02-11T23:11:37.069Z,5.90
2023-02-11T23:14:03.924Z,6.00
2023-02-11T23:16:32.337Z,6.00
2023-02-11T23:18:59.942Z,6.00
2023-02-11T23:21:28.085Z,6.00
2023-02-11T23:24:02.286Z,6.00
2023-02-11T23:26:29.069Z,6.00
2023-02-11T23:28:55.895Z,6.00
2023-02-11T23:31:27.467Z,6.00
2023-02-11T23:33:54.556Z,6.00
2023-02-11T23:36:21.626Z,6.00
2023-02-11T23:38:48.576Z,6.00
2023-02-11T23:41:15.922Z,6.00
2023-02-11T23:43:42.661Z,6.00
2023-02-11T23:46:09.665Z,6.00
2023-02-11T23:48:37.526Z,6.10
2023-02-11T23:51:04.250Z,6.00
2023-02-11T23:53:30.880Z,6.00
2023-02-11T23:55:57.620Z,6.00
2023-02-11T23:58:24.234Z,6.10
